Greensboro, Alabama
Current Conditions -  °F | °C
As of 11:55 PM on Saturday 22 Nov 2014 (Local Time) from KDYA Reporting Station
Drizzle Drizzle  
Wind Chill: 58°   Ceiling: 1200
Heat Index: 58°   Visibility: 7mi
Dew Point: 58°   Wind: 3mph
Humidity: 100%   Direction: 80°E
Pressure: 30"   Gusts: NA
Location:  32.7°N, 87.6°W
Report Text: KDYA 230555Z AUTO 08003KT 7SM DZ OVC012 15/15 A3000 RMK AO2 T01460146 10186 20146 402100024
Loading
Personal Weather Stations






























Interactive Weather Map New forecast layout! Learn more

10-Day Weather Forecast

Advertisements
Track Severe Weather on mobile